createdAt,value
2018-04-29T00:01:17.409Z,72.13
2018-04-29T00:03:44.096Z,72.12
2018-04-29T00:06:10.812Z,72.82
2018-04-29T00:08:43.653Z,72.43
2018-04-29T00:11:10.214Z,71.42
2018-04-29T00:13:36.862Z,71.84
2018-04-29T00:16:03.449Z,71.85
2018-04-29T00:18:33.570Z,70.78
2018-04-29T00:21:00.160Z,70.79
2018-04-29T00:23:26.933Z,71.47
2018-04-29T00:25:53.675Z,71.97
2018-04-29T00:28:21.364Z,72.67
2018-04-29T00:30:48.046Z,72.31
2018-04-29T00:33:15.062Z,71.82
2018-04-29T00:35:41.790Z,71.37
2018-04-29T00:38:14.100Z,71.94
2018-04-29T00:40:40.720Z,72.03
2018-04-29T00:43:07.407Z,72.24
2018-04-29T00:45:34.072Z,71.85
2018-04-29T00:48:01.782Z,71.41
2018-04-29T00:50:28.781Z,71.89
2018-04-29T00:52:55.470Z,71.76
2018-04-29T00:55:22.122Z,71.39
2018-04-29T00:57:52.472Z,71.49
2018-04-29T01:00:19.146Z,72.21
2018-04-29T01:02:45.829Z,72.20
2018-04-29T01:05:12.472Z,71.89
2018-04-29T01:07:42.653Z,71.65
2018-04-29T01:10:09.304Z,71.72
2018-04-29T01:12:36.035Z,71.04
2018-04-29T01:15:02.573Z,70.87
2018-04-29T01:17:30.700Z,70.86
2018-04-29T01:19:57.497Z,70.58
2018-04-29T01:22:24.215Z,70.63
2018-04-29T01:24:50.876Z,70.49
2018-04-29T01:27:21.314Z,70.67
2018-04-29T01:29:47.960Z,70.40
2018-04-29T01:32:14.584Z,70.11
2018-04-29T01:34:41.298Z,69.93
2018-04-29T01:37:11.135Z,69.85
2018-04-29T01:39:37.927Z,70.27
2018-04-29T01:42:04.885Z,69.53
2018-04-29T01:44:32.005Z,69.80
2018-04-29T01:46:59.262Z,69.90
2018-04-29T01:49:25.954Z,69.99
2018-04-29T01:51:52.647Z,69.67
2018-04-29T01:54:19.336Z,69.87
2018-04-29T01:56:50.147Z,70.65
2018-04-29T01:59:17.446Z,70.34
2018-04-29T02:01:44.081Z,70.69
2018-04-29T02:04:10.690Z,70.87
2018-04-29T02:06:37.286Z,71.23
2018-04-29T02:09:03.908Z,71.88
2018-04-29T02:11:30.617Z,72.29
2018-04-29T02:13:57.357Z,72.29
2018-04-29T02:18:56.307Z,71.92
2018-04-29T02:21:22.969Z,71.73
2018-04-29T02:23:49.670Z,71.64
2018-04-29T02:26:16.397Z,71.19
2018-04-29T02:28:43.057Z,70.84
2018-04-29T02:31:09.751Z,70.86
2018-04-29T02:33:36.735Z,70.47
2018-04-29T02:36:03.294Z,70.92
2018-04-29T02:38:30.969Z,70.83
2018-04-29T02:40:57.708Z,71.08
2018-04-29T02:43:24.304Z,71.20
2018-04-29T02:45:50.878Z,71.15
2018-04-29T02:48:24.639Z,70.45
2018-04-29T02:50:51.345Z,70.76
2018-04-29T02:53:17.920Z,70.52
2018-04-29T02:55:44.727Z,71.21
2018-04-29T02:58:14.994Z,71.19
2018-04-29T03:00:41.664Z,70.28
2018-04-29T03:03:08.324Z,70.46
2018-04-29T03:05:34.998Z,71.10
2018-04-29T03:08:05.415Z,71.41
2018-04-29T03:10:32.135Z,70.30
2018-04-29T03:12:59.026Z,70.65
2018-04-29T03:15:25.585Z,71.25
2018-04-29T03:17:56.997Z,71.44
2018-04-29T03:20:23.658Z,71.55
2018-04-29T03:22:50.286Z,71.49
2018-04-29T03:25:17.980Z,71.45
2018-04-29T03:27:51.101Z,71.77
2018-04-29T03:30:17.751Z,71.90
2018-04-29T03:32:44.381Z,71.56
2018-04-29T03:35:11.081Z,71.53
2018-04-29T03:37:40.746Z,71.29
2018-04-29T03:40:07.456Z,71.33
2018-04-29T03:42:34.101Z,71.08
2018-04-29T03:45:00.961Z,71.41
2018-04-29T03:47:31.294Z,72.37
2018-04-29T03:49:57.921Z,71.71
2018-04-29T03:52:24.560Z,71.29
2018-04-29T03:54:51.274Z,70.81
2018-04-29T03:57:35.909Z,70.82
2018-04-29T04:00:16.369Z,71.17
2018-04-29T04:02:55.047Z,70.26
2018-04-29T04:05:21.966Z,69.44
2018-04-29T04:07:48.589Z,69.64
2018-04-29T04:10:15.184Z,70.26
2018-04-29T04:12:41.817Z,69.39
2018-04-29T04:15:08.528Z,70.13
2018-04-29T04:17:38.685Z,68.97
2018-04-29T04:20:05.330Z,68.66
2018-04-29T04:22:31.998Z,68.29
2018-04-29T04:24:58.546Z,66.51
2018-04-29T04:27:29.012Z,68.29
2018-04-29T04:29:55.711Z,68.15
2018-04-29T04:32:22.364Z,68.25
2018-04-29T04:34:49.050Z,67.85
2018-04-29T04:37:19.063Z,67.22
2018-04-29T04:39:45.637Z,67.24
2018-04-29T04:42:12.360Z,66.81
2018-04-29T04:44:38.948Z,66.28
2018-04-29T04:47:06.901Z,64.35
2018-04-29T04:49:33.565Z,63.97
2018-04-29T04:52:00.232Z,64.81
2018-04-29T04:54:26.883Z,64.45
2018-04-29T04:56:58.315Z,63.76
2018-04-29T04:59:24.947Z,63.90
2018-04-29T05:01:51.606Z,64.37
2018-04-29T05:04:18.394Z,64.49
2018-04-29T05:06:45.520Z,64.56
2018-04-29T05:09:12.078Z,64.35
2018-04-29T05:11:38.796Z,64.75
2018-04-29T05:14:05.562Z,63.93
2018-04-29T05:16:35.224Z,65.44
2018-04-29T05:19:01.904Z,64.59
2018-04-29T05:21:28.542Z,65.06
2018-04-29T05:23:55.186Z,65.93
2018-04-29T05:26:22.168Z,66.05
2018-04-29T05:28:48.820Z,65.60
2018-04-29T05:31:15.492Z,64.98
2018-04-29T05:33:41.977Z,65.58
2018-04-29T05:36:16.530Z,65.09
2018-04-29T05:38:43.153Z,65.26
2018-04-29T05:41:10.471Z,65.77
2018-04-29T05:43:37.194Z,65.47
2018-04-29T05:46:11.381Z,65.29
2018-04-29T05:48:43.927Z,64.92
2018-04-29T05:51:10.816Z,64.29
2018-04-29T05:53:37.781Z,64.34
2018-04-29T05:56:04.875Z,61.21
2018-04-29T05:58:31.587Z,59.60
2018-04-29T06:00:58.147Z,58.38
2018-04-29T06:03:25.041Z,57.57
2018-04-29T06:06:02.233Z,57.12
2018-04-29T06:08:28.860Z,55.42
2018-04-29T06:10:55.625Z,53.60
2018-04-29T06:13:22.318Z,55.12
2018-04-29T06:15:48.976Z,53.72
2018-04-29T06:18:15.682Z,53.27
2018-04-29T06:20:43.534Z,54.54
2018-04-29T06:23:10.230Z,52.46
2018-04-29T06:25:36.810Z,52.06
2018-04-29T06:28:06.977Z,52.16
2018-04-29T06:30:33.734Z,50.78
2018-04-29T06:33:00.147Z,52.45
2018-04-29T06:35:26.713Z,51.75
2018-04-29T06:37:59.362Z,52.10
2018-04-29T06:40:26.009Z,51.90
2018-04-29T06:42:52.694Z,51.69
2018-04-29T06:45:19.582Z,50.90
2018-04-29T06:47:47.730Z,50.89
2018-04-29T06:50:14.482Z,51.42
2018-04-29T06:52:41.164Z,51.00
2018-04-29T06:55:08.054Z,51.17
2018-04-29T06:57:35.625Z,51.51
2018-04-29T07:00:02.171Z,50.89
2018-04-29T07:02:28.840Z,52.12
2018-04-29T07:04:55.545Z,49.92
2018-04-29T07:07:25.457Z,50.13
2018-04-29T07:09:52.765Z,49.74
2018-04-29T07:12:19.378Z,49.93
2018-04-29T07:14:45.997Z,50.82
2018-04-29T07:17:16.350Z,48.56
2018-04-29T07:19:43.000Z,46.55
2018-04-29T07:22:09.706Z,46.81
2018-04-29T07:24:36.431Z,45.01
2018-04-29T07:27:04.022Z,45.04
2018-04-29T07:29:30.678Z,45.98
2018-04-29T07:31:57.396Z,46.42
2018-04-29T07:34:24.059Z,44.42
2018-04-29T07:36:53.922Z,45.42
2018-04-29T07:39:21.713Z,46.46
2018-04-29T07:41:48.338Z,47.42
2018-04-29T07:44:15.097Z,47.78
2018-04-29T07:46:42.053Z,48.06
2018-04-29T07:49:08.778Z,46.99
2018-04-29T07:51:35.444Z,45.74
2018-04-29T07:54:02.190Z,46.56
2018-04-29T07:56:32.754Z,44.56
2018-04-29T07:58:59.548Z,44.31
2018-04-29T08:01:26.594Z,44.71
2018-04-29T08:03:53.197Z,45.45
2018-04-29T08:06:19.781Z,45.26
2018-04-29T08:08:46.682Z,43.48
2018-04-29T08:11:13.355Z,42.15
2018-04-29T08:13:40.294Z,40.72
2018-04-29T08:16:13.297Z,41.35
2018-04-29T08:18:40.017Z,41.51
2018-04-29T08:21:06.770Z,41.79
2018-04-29T08:23:33.607Z,38.47
2018-04-29T08:26:07.563Z,40.93
2018-04-29T08:28:34.228Z,42.18
2018-04-29T08:31:00.849Z,42.77
2018-04-29T08:33:27.897Z,41.33
2018-04-29T08:35:58.390Z,41.08
2018-04-29T08:38:25.005Z,41.20
2018-04-29T08:40:51.519Z,42.31
2018-04-29T08:43:18.234Z,41.16
2018-04-29T08:45:52.546Z,41.21
2018-04-29T08:48:19.357Z,40.47
2018-04-29T08:50:45.979Z,38.38
2018-04-29T08:53:12.595Z,39.01
2018-04-29T08:55:42.962Z,39.97
2018-04-29T08:58:09.546Z,40.55
2018-04-29T09:00:39.370Z,42.02
2018-04-29T09:03:06.025Z,42.06
2018-04-29T09:05:37.066Z,40.04
2018-04-29T09:08:03.813Z,37.61
2018-04-29T09:10:31.097Z,38.80
2018-04-29T09:12:57.793Z,37.31
2018-04-29T09:15:32.249Z,38.98
2018-04-29T09:17:58.854Z,38.98
2018-04-29T09:20:25.473Z,40.69
2018-04-29T09:22:52.170Z,40.17
2018-04-29T09:25:18.741Z,38.88
2018-04-29T09:27:45.741Z,38.01
2018-04-29T09:30:12.397Z,37.01
2018-04-29T09:32:39.289Z,35.36
2018-04-29T09:35:05.834Z,34.35
2018-04-29T09:37:35.661Z,37.26
2018-04-29T09:40:02.292Z,37.72
2018-04-29T09:42:29.254Z,34.34
2018-04-29T09:44:55.821Z,34.91
2018-04-29T09:47:25.935Z,33.65
2018-04-29T09:49:52.616Z,35.37
2018-04-29T09:52:19.763Z,36.53
2018-04-29T09:54:46.521Z,36.84
2018-04-29T09:57:14.455Z,36.22
2018-04-29T09:59:41.187Z,36.85
2018-04-29T10:02:10.851Z,35.38
2018-04-29T10:04:37.921Z,33.50
2018-04-29T10:07:04.847Z,33.73
2018-04-29T10:09:31.955Z,34.59
2018-04-29T10:11:58.974Z,35.19
2018-04-29T10:14:25.642Z,34.11
2018-04-29T10:16:53.187Z,34.98
2018-04-29T10:19:20.001Z,34.21
2018-04-29T10:21:47.262Z,34.53
2018-04-29T10:24:13.737Z,36.98
2018-04-29T10:26:51.670Z,36.11
2018-04-29T10:29:18.303Z,34.79
2018-04-29T10:31:44.953Z,34.29
2018-04-29T10:34:11.738Z,34.70
2018-04-29T10:36:51.646Z,34.41
2018-04-29T10:39:18.133Z,35.76
2018-04-29T10:41:44.810Z,33.93
2018-04-29T10:44:11.437Z,35.61
2018-04-29T10:46:39.296Z,35.77
2018-04-29T10:49:06.028Z,34.74
2018-04-29T10:51:32.768Z,35.74
2018-04-29T10:53:59.454Z,35.45
2018-04-29T10:56:27.302Z,34.21
2018-04-29T10:58:53.989Z,34.01
2018-04-29T11:01:20.977Z,34.69
2018-04-29T11:03:47.581Z,33.60
2018-04-29T11:06:14.578Z,34.43
2018-04-29T11:08:41.743Z,33.43
2018-04-29T11:11:08.469Z,32.02
2018-04-29T11:13:35.129Z,30.87
2018-04-29T11:16:06.131Z,31.60
2018-04-29T11:18:32.745Z,32.88
2018-04-29T11:20:59.500Z,31.72
2018-04-29T11:23:26.156Z,33.05
2018-04-29T11:25:53.947Z,34.86
2018-04-29T11:28:21.401Z,33.99
2018-04-29T11:30:48.113Z,34.84
2018-04-29T11:33:16.173Z,34.67
2018-04-29T11:35:43.291Z,34.42
2018-04-29T11:38:09.865Z,35.00
2018-04-29T11:40:36.695Z,35.56
2018-04-29T11:43:03.217Z,37.24
2018-04-29T11:45:29.996Z,36.51
2018-04-29T11:47:56.679Z,36.68
2018-04-29T11:50:23.301Z,36.20
2018-04-29T11:52:50.050Z,35.02
2018-04-29T11:55:18.094Z,33.91
2018-04-29T11:57:44.866Z,33.31
2018-04-29T12:00:11.545Z,32.46
2018-04-29T12:02:38.215Z,34.03
2018-04-29T12:05:15.351Z,34.14
2018-04-29T12:07:42.192Z,33.49
2018-04-29T12:10:09.238Z,35.37
2018-04-29T12:12:35.904Z,34.40
2018-04-29T12:15:05.951Z,35.45
2018-04-29T12:17:33.094Z,35.44
2018-04-29T12:19:59.738Z,33.48
2018-04-29T12:22:26.522Z,33.27
2018-04-29T12:24:53.483Z,35.35
2018-04-29T12:27:20.061Z,34.38
2018-04-29T12:29:46.637Z,33.73
2018-04-29T12:32:13.554Z,32.23
2018-04-29T12:34:40.131Z,30.97
2018-04-29T12:37:07.923Z,30.43
2018-04-29T12:39:34.544Z,29.98
2018-04-29T12:42:02.209Z,32.26
2018-04-29T12:44:28.641Z,31.05
2018-04-29T12:47:03.064Z,30.30
2018-04-29T12:49:29.715Z,30.53
2018-04-29T12:51:56.848Z,30.91
2018-04-29T12:54:23.722Z,29.84
2018-04-29T12:56:51.953Z,30.05
2018-04-29T12:59:18.642Z,30.37
2018-04-29T13:01:45.606Z,29.69
2018-04-29T13:04:12.296Z,27.69
2018-04-29T13:06:43.441Z,28.23
2018-04-29T13:09:09.910Z,28.31
2018-04-29T13:11:36.569Z,29.09
2018-04-29T13:14:03.148Z,27.13
2018-04-29T13:16:34.617Z,27.64
2018-04-29T13:19:01.201Z,28.02
2018-04-29T13:21:28.337Z,27.98
2018-04-29T13:23:54.945Z,26.34
2018-04-29T13:26:27.069Z,27.64
2018-04-29T13:28:53.809Z,26.50
2018-04-29T13:31:20.507Z,25.97
2018-04-29T13:33:47.138Z,25.81
2018-04-29T13:36:24.402Z,25.45
2018-04-29T13:38:51.054Z,25.02
2018-04-29T13:41:17.706Z,22.95
2018-04-29T13:43:44.365Z,24.29
2018-04-29T13:46:18.729Z,24.88
2018-04-29T13:48:45.475Z,24.23
2018-04-29T13:51:12.130Z,24.62
2018-04-29T13:53:38.853Z,23.45
2018-04-29T13:56:10.187Z,24.46
2018-04-29T13:58:36.822Z,22.40
2018-04-29T14:01:03.433Z,21.57
2018-04-29T14:03:30.099Z,21.13
2018-04-29T14:06:03.184Z,21.07
2018-04-29T14:08:30.571Z,21.65
2018-04-29T14:10:57.730Z,22.35
2018-04-29T14:13:25.158Z,21.51
2018-04-29T14:15:55.031Z,22.13
2018-04-29T14:18:21.929Z,22.51
2018-04-29T14:20:48.590Z,22.50
2018-04-29T14:23:15.141Z,23.33
2018-04-29T14:25:46.031Z,24.32
2018-04-29T14:28:13.074Z,23.92
2018-04-29T14:30:39.673Z,23.70
2018-04-29T14:33:06.603Z,23.39
2018-04-29T14:35:34.514Z,23.93
2018-04-29T14:38:01.520Z,22.53
2018-04-29T14:40:28.322Z,23.30
2018-04-29T14:42:55.141Z,21.37
2018-04-29T14:45:29.043Z,21.96
2018-04-29T14:47:55.685Z,22.01
2018-04-29T14:50:22.314Z,21.89
2018-04-29T14:52:48.883Z,22.48
2018-04-29T14:55:21.119Z,22.17
2018-04-29T14:57:47.710Z,20.74
2018-04-29T15:00:14.356Z,20.28
2018-04-29T15:02:41.216Z,22.03
2018-04-29T15:05:11.273Z,21.92
2018-04-29T15:07:38.774Z,21.17
2018-04-29T15:10:05.394Z,22.07
2018-04-29T15:12:32.401Z,23.74
2018-04-29T15:15:03.201Z,22.41
2018-04-29T15:17:29.966Z,22.66
2018-04-29T15:19:56.619Z,23.51
2018-04-29T15:22:23.209Z,24.11
2018-04-29T15:24:51.079Z,23.93
2018-04-29T15:27:17.829Z,23.48
2018-04-29T15:29:44.602Z,22.40
2018-04-29T15:32:11.266Z,24.69
2018-04-29T15:34:43.965Z,26.92
2018-04-29T15:37:10.690Z,25.33
2018-04-29T15:39:37.293Z,23.93
2018-04-29T15:42:03.934Z,25.06
2018-04-29T15:44:34.085Z,24.14
2018-04-29T15:47:00.793Z,26.83
2018-04-29T15:49:27.413Z,24.88
2018-04-29T15:51:54.142Z,27.83
2018-04-29T15:54:25.753Z,28.12
2018-04-29T15:56:52.394Z,27.38
2018-04-29T15:59:19.023Z,28.67
2018-04-29T16:01:45.862Z,28.45
2018-04-29T16:04:12.624Z,29.67
2018-04-29T16:06:39.340Z,28.20
2018-04-29T16:09:06.011Z,29.49
2018-04-29T16:11:32.739Z,27.73
2018-04-29T16:13:59.349Z,28.99
2018-04-29T16:16:30.277Z,33.15
2018-04-29T16:18:57.060Z,36.09
2018-04-29T16:21:23.864Z,37.14
2018-04-29T16:23:50.563Z,40.00
2018-04-29T16:26:18.162Z,41.40
2018-04-29T16:28:44.865Z,43.38
2018-04-29T16:31:11.459Z,44.34
2018-04-29T16:33:38.041Z,45.25
2018-04-29T16:36:07.805Z,45.16
2018-04-29T16:38:34.429Z,47.33
2018-04-29T16:41:01.000Z,47.46
2018-04-29T16:43:27.795Z,47.83
2018-04-29T16:45:58.209Z,48.09
2018-04-29T16:48:24.823Z,49.85
2018-04-29T16:50:51.397Z,49.36
2018-04-29T16:53:18.065Z,52.02
2018-04-29T16:55:48.694Z,52.18
2018-04-29T16:58:16.076Z,52.29
2018-04-29T17:00:42.578Z,53.92
2018-04-29T17:03:09.238Z,53.06
2018-04-29T17:05:39.192Z,53.89
2018-04-29T17:08:05.810Z,54.19
2018-04-29T17:10:32.455Z,53.88
2018-04-29T17:12:59.966Z,55.61
2018-04-29T17:15:37.926Z,57.10
2018-04-29T17:18:04.725Z,57.57
2018-04-29T17:20:31.289Z,57.47
2018-04-29T17:22:57.931Z,58.61
2018-04-29T17:25:27.713Z,59.16
2018-04-29T17:27:55.559Z,60.00
2018-04-29T17:30:22.229Z,61.07
2018-04-29T17:32:48.882Z,60.91
2018-04-29T17:35:21.953Z,61.58
2018-04-29T17:37:48.669Z,61.35
2018-04-29T17:40:15.307Z,61.90
2018-04-29T17:42:42.000Z,62.14
2018-04-29T17:45:08.989Z,63.98
2018-04-29T17:47:35.968Z,63.19
2018-04-29T17:50:02.594Z,64.46
2018-04-29T17:52:29.149Z,64.08
2018-04-29T17:54:59.497Z,64.15
2018-04-29T17:57:26.353Z,63.58
2018-04-29T17:59:53.021Z,65.83
2018-04-29T18:02:19.731Z,64.82
2018-04-29T18:04:47.861Z,65.77
2018-04-29T18:07:14.594Z,64.56
2018-04-29T18:09:41.152Z,65.53
2018-04-29T18:12:07.847Z,65.39
2018-04-29T18:14:37.538Z,66.06
2018-04-29T18:17:04.261Z,66.86
2018-04-29T18:19:30.865Z,66.99
2018-04-29T18:21:57.466Z,67.33
2018-04-29T18:24:25.235Z,67.23
2018-04-29T18:26:51.956Z,68.02
2018-04-29T18:29:18.906Z,67.72
2018-04-29T18:31:45.623Z,68.65
2018-04-29T18:34:13.539Z,68.96
2018-04-29T18:36:40.710Z,68.42
2018-04-29T18:39:07.418Z,68.96
2018-04-29T18:41:34.060Z,69.36
2018-04-29T18:44:01.672Z,69.17
2018-04-29T18:46:28.334Z,68.56
2018-04-29T18:48:55.057Z,69.78
2018-04-29T18:51:22.038Z,67.92
2018-04-29T18:53:49.697Z,68.26
2018-04-29T18:56:16.446Z,67.46
2018-04-29T18:58:43.173Z,66.99
2018-04-29T19:01:10.257Z,69.17
2018-04-29T19:03:36.903Z,68.80
2018-04-29T19:06:07.226Z,70.07
2018-04-29T19:08:33.819Z,69.75
2018-04-29T19:11:00.499Z,70.54
2018-04-29T19:13:27.235Z,71.11
2018-04-29T19:15:54.963Z,71.64
2018-04-29T19:18:21.741Z,71.66
2018-04-29T19:20:48.464Z,71.51
2018-04-29T19:23:15.098Z,71.16
2018-04-29T19:25:44.840Z,71.54
2018-04-29T19:28:11.476Z,71.61
2018-04-29T19:30:38.205Z,71.58
2018-04-29T19:33:04.909Z,71.19
2018-04-29T19:35:35.617Z,70.28
2018-04-29T19:38:02.793Z,71.25
2018-04-29T19:40:29.453Z,70.75
2018-04-29T19:42:56.881Z,71.63
2018-04-29T19:45:24.596Z,71.04
2018-04-29T19:47:51.348Z,70.55
2018-04-29T19:50:18.090Z,70.99
2018-04-29T19:52:44.820Z,71.36
2018-04-29T19:55:11.766Z,70.04
2018-04-29T19:57:38.382Z,71.19
2018-04-29T20:00:04.934Z,70.01
2018-04-29T20:02:31.671Z,69.19
2018-04-29T20:04:59.406Z,69.47
2018-04-29T20:07:26.078Z,69.38
2018-04-29T20:09:52.713Z,69.18
2018-04-29T20:12:19.414Z,69.48
2018-04-29T20:14:46.225Z,68.31
2018-04-29T20:17:12.842Z,67.91
2018-04-29T20:19:39.521Z,68.99
2018-04-29T20:22:06.083Z,68.90
2018-04-29T20:24:32.826Z,68.95
2018-04-29T20:26:59.483Z,68.32
2018-04-29T20:29:26.622Z,67.40
2018-04-29T20:31:53.362Z,67.00
2018-04-29T20:34:20.181Z,66.58
2018-04-29T20:36:46.742Z,66.03
2018-04-29T20:39:14.182Z,68.14
2018-04-29T20:41:40.750Z,66.77
2018-04-29T20:44:13.350Z,67.87
2018-04-29T20:46:40.006Z,67.92
2018-04-29T20:49:06.611Z,69.58
2018-04-29T20:51:33.326Z,69.32
2018-04-29T20:54:03.901Z,67.97
2018-04-29T20:56:30.546Z,68.78
2018-04-29T20:58:57.200Z,68.18
2018-04-29T21:01:24.050Z,68.34
2018-04-29T21:03:58.740Z,68.84
2018-04-29T21:06:25.398Z,68.78
2018-04-29T21:08:52.058Z,67.97
2018-04-29T21:11:18.744Z,68.87
2018-04-29T21:13:46.473Z,68.56
2018-04-29T21:16:12.995Z,68.97
2018-04-29T21:18:39.514Z,70.54
2018-04-29T21:21:06.091Z,69.37
2018-04-29T21:23:32.893Z,69.23
2018-04-29T21:26:00.057Z,69.86
2018-04-29T21:28:26.709Z,68.87
2018-04-29T21:30:53.438Z,68.64
2018-04-29T21:33:19.926Z,68.32
2018-04-29T21:35:47.384Z,68.11
2018-04-29T21:38:14.201Z,68.52
2018-04-29T21:40:40.787Z,69.38
2018-04-29T21:43:07.575Z,68.41
2018-04-29T21:45:39.834Z,67.93
2018-04-29T21:48:06.316Z,68.40
2018-04-29T21:50:33.057Z,69.43
2018-04-29T21:52:59.630Z,70.70
2018-04-29T21:55:27.672Z,70.22
2018-04-29T21:57:54.148Z,70.41
2018-04-29T22:00:20.707Z,70.11
2018-04-29T22:02:47.284Z,70.32
2018-04-29T22:05:14.920Z,69.85
2018-04-29T22:07:41.538Z,69.98
2018-04-29T22:10:08.757Z,70.37
2018-04-29T22:12:35.824Z,70.55
2018-04-29T22:15:02.928Z,70.36
2018-04-29T22:17:29.569Z,70.12
2018-04-29T22:19:56.102Z,70.69
2018-04-29T22:22:22.689Z,70.52
2018-04-29T22:24:52.288Z,69.85
2018-04-29T22:27:18.937Z,69.36
2018-04-29T22:29:45.656Z,69.16
2018-04-29T22:32:12.229Z,69.03
2018-04-29T22:34:44.950Z,68.54
2018-04-29T22:37:11.694Z,68.79
2018-04-29T22:39:38.186Z,69.45
2018-04-29T22:42:04.700Z,70.49
2018-04-29T22:44:32.493Z,70.32
2018-04-29T22:46:59.008Z,69.83
2018-04-29T22:49:25.851Z,70.42
2018-04-29T22:51:52.500Z,70.85
2018-04-29T22:54:22.460Z,70.99
2018-04-29T22:56:49.048Z,71.18
2018-04-29T22:59:16.231Z,72.11
2018-04-29T23:01:43.133Z,71.55
2018-04-29T23:04:10.797Z,71.81
2018-04-29T23:06:37.467Z,71.44
2018-04-29T23:09:05.016Z,71.05
2018-04-29T23:11:31.763Z,71.58
2018-04-29T23:14:02.402Z,71.87
2018-04-29T23:16:29.026Z,72.85
2018-04-29T23:18:55.655Z,73.03
2018-04-29T23:21:22.376Z,72.67
2018-04-29T23:23:49.166Z,73.08
2018-04-29T23:26:15.881Z,73.82
2018-04-29T23:28:42.626Z,74.26
2018-04-29T23:31:09.309Z,73.71
2018-04-29T23:33:36.086Z,73.13
2018-04-29T23:36:02.641Z,73.54
2018-04-29T23:38:29.323Z,73.54
2018-04-29T23:40:56.345Z,74.32
2018-04-29T23:43:26.584Z,74.18
2018-04-29T23:45:53.765Z,73.61
2018-04-29T23:48:20.790Z,74.11
2018-04-29T23:50:47.485Z,74.26
2018-04-29T23:53:24.949Z,73.74
2018-04-29T23:55:51.866Z,73.51
2018-04-29T23:58:18.622Z,72.86
